createdAt,value
2022-10-20T00:01:22.619Z,15.80
2022-10-20T00:03:50.034Z,16.63
2022-10-20T00:06:21.329Z,16.90
2022-10-20T00:08:48.689Z,15.83
2022-10-20T00:11:19.166Z,16.67
2022-10-20T00:13:49.866Z,16.03
2022-10-20T00:16:17.103Z,16.97
2022-10-20T00:18:44.449Z,17.70
2022-10-20T00:21:15.834Z,17.87
2022-10-20T00:23:43.123Z,18.33
2022-10-20T00:26:21.003Z,18.43
2022-10-20T00:28:48.973Z,19.17
2022-10-20T00:31:16.393Z,19.67
2022-10-20T00:33:43.339Z,19.27
2022-10-20T00:36:15.549Z,19.97
2022-10-20T00:38:43.216Z,19.53
2022-10-20T00:41:17.624Z,19.13
2022-10-20T00:43:53.039Z,19.10
2022-10-20T00:46:39.784Z,19.57
2022-10-20T00:49:23.105Z,19.43
2022-10-20T00:51:52.675Z,19.43
2022-10-20T00:54:24.356Z,19.27
2022-10-20T00:56:52.371Z,19.73
2022-10-20T00:59:23.143Z,19.23
2022-10-20T01:01:50.216Z,19.30
2022-10-20T01:04:18.005Z,19.60
2022-10-20T01:06:44.913Z,19.13
2022-10-20T01:09:11.834Z,20.00
2022-10-20T01:12:22.889Z,20.47
2022-10-20T01:15:02.550Z,18.80
2022-10-20T01:17:42.765Z,18.03
2022-10-20T01:21:00.706Z,19.17
2022-10-20T01:23:56.426Z,17.87
2022-10-20T01:26:38.024Z,17.50
2022-10-20T01:29:19.908Z,18.60
2022-10-20T01:32:07.802Z,18.13
2022-10-20T01:34:50.657Z,18.67
2022-10-20T01:37:51.346Z,18.17
2022-10-20T01:40:45.580Z,17.47
2022-10-20T01:43:15.825Z,16.93
2022-10-20T01:45:47.643Z,18.00
2022-10-20T01:48:20.161Z,16.93
2022-10-20T01:50:48.532Z,17.07
2022-10-20T01:53:16.475Z,17.67
2022-10-20T01:55:43.798Z,17.17
2022-10-20T01:58:28.955Z,17.23
2022-10-20T02:01:03.606Z,16.83
2022-10-20T02:03:39.346Z,17.13
2022-10-20T02:06:35.270Z,16.40
2022-10-20T02:09:07.794Z,16.63
2022-10-20T02:12:02.481Z,17.07
2022-10-20T02:14:33.087Z,17.33
2022-10-20T02:17:07.880Z,16.93
2022-10-20T02:19:39.955Z,17.33
2022-10-20T02:22:09.074Z,17.07
2022-10-20T02:24:42.108Z,16.63
2022-10-20T02:27:25.318Z,16.77
2022-10-20T02:30:18.758Z,15.97
2022-10-20T02:32:52.386Z,16.70
2022-10-20T02:35:26.599Z,16.53
2022-10-20T02:37:53.406Z,16.13
2022-10-20T02:40:22.238Z,16.63
2022-10-20T02:42:49.652Z,16.17
2022-10-20T02:45:16.573Z,15.50
2022-10-20T02:47:43.453Z,15.33
2022-10-20T02:50:10.587Z,16.00
2022-10-20T02:52:37.952Z,16.43
2022-10-20T02:55:06.398Z,16.10
2022-10-20T02:57:33.516Z,16.83
2022-10-20T03:00:00.402Z,16.07
2022-10-20T03:02:27.208Z,15.73
2022-10-20T03:04:53.976Z,14.77
2022-10-20T03:07:20.754Z,15.73
2022-10-20T03:09:47.685Z,15.73
2022-10-20T03:12:14.469Z,15.83
2022-10-20T03:14:42.742Z,15.93
2022-10-20T03:17:10.102Z,14.93
2022-10-20T03:19:36.913Z,15.97
2022-10-20T03:22:03.681Z,15.10
2022-10-20T03:24:30.542Z,15.40
2022-10-20T03:26:57.307Z,14.23
2022-10-20T03:29:24.063Z,14.13
2022-10-20T03:31:50.852Z,14.87
2022-10-20T03:34:17.604Z,13.57
2022-10-20T03:36:44.386Z,13.97
2022-10-20T03:39:11.178Z,14.03
2022-10-20T03:41:37.957Z,13.77
2022-10-20T03:44:04.879Z,13.73
2022-10-20T03:46:31.666Z,14.03
2022-10-20T03:48:58.454Z,14.20
2022-10-20T03:51:25.260Z,14.10
2022-10-20T03:53:52.035Z,13.67
2022-10-20T03:56:20.668Z,14.33
2022-10-20T03:58:47.829Z,13.83
2022-10-20T04:01:21.885Z,14.03
2022-10-20T04:03:48.744Z,12.97
2022-10-20T04:06:16.128Z,13.90
2022-10-20T04:08:42.952Z,13.77
2022-10-20T04:11:09.771Z,13.50
2022-10-20T04:13:36.824Z,13.47
2022-10-20T04:16:03.963Z,14.10
2022-10-20T04:18:31.807Z,13.17
2022-10-20T04:20:58.830Z,13.13
2022-10-20T04:23:25.645Z,13.27
2022-10-20T04:25:52.455Z,13.47
2022-10-20T04:28:20.692Z,13.43
2022-10-20T04:30:48.906Z,13.57
2022-10-20T04:33:16.615Z,14.07
2022-10-20T04:35:43.968Z,13.57
2022-10-20T04:38:10.882Z,13.03
2022-10-20T04:40:37.669Z,13.40
2022-10-20T04:43:04.461Z,13.30
2022-10-20T04:45:31.259Z,12.17
2022-10-20T04:47:58.065Z,13.03
2022-10-20T04:50:24.898Z,13.20
2022-10-20T04:52:52.160Z,12.57
2022-10-20T04:55:20.205Z,12.33
2022-10-20T04:57:47.059Z,12.13
2022-10-20T05:00:14.875Z,11.80
2022-10-20T05:02:41.743Z,12.10
2022-10-20T05:05:09.189Z,12.40
2022-10-20T05:07:36.336Z,10.47
2022-10-20T05:10:04.303Z,11.10
2022-10-20T05:12:31.166Z,10.70
2022-10-20T05:14:58.102Z,10.80
2022-10-20T05:17:25.393Z,11.33
2022-10-20T05:19:52.195Z,11.13
2022-10-20T05:22:18.968Z,10.83
2022-10-20T05:24:45.754Z,10.37
2022-10-20T05:27:12.542Z,11.30
2022-10-20T05:29:39.370Z,10.93
2022-10-20T05:32:06.193Z,10.73
2022-10-20T05:34:32.955Z,10.80
2022-10-20T05:36:59.776Z,10.43
2022-10-20T05:39:26.617Z,10.00
2022-10-20T05:41:53.428Z,10.30
2022-10-20T05:44:20.177Z,10.13
2022-10-20T05:46:46.999Z,10.57
2022-10-20T05:49:16.676Z,10.67
2022-10-20T05:51:45.296Z,9.97
2022-10-20T05:54:13.446Z,10.43
2022-10-20T05:56:40.834Z,10.27
2022-10-20T05:59:09.004Z,11.30
2022-10-20T06:01:48.270Z,10.43
2022-10-20T06:04:23.714Z,10.40
2022-10-20T06:06:52.124Z,10.43
2022-10-20T06:09:19.718Z,10.90
2022-10-20T06:11:47.313Z,10.20
2022-10-20T06:14:14.544Z,10.10
2022-10-20T06:16:41.332Z,9.50
2022-10-20T06:19:08.109Z,10.00
2022-10-20T06:21:37.001Z,9.47
2022-10-20T06:24:05.863Z,10.10
2022-10-20T06:26:36.587Z,9.53
2022-10-20T06:29:06.341Z,9.73
2022-10-20T06:31:43.681Z,9.27
2022-10-20T06:34:17.647Z,9.60
2022-10-20T06:36:46.067Z,9.43
2022-10-20T06:39:22.050Z,9.63
2022-10-20T06:41:54.141Z,9.27
2022-10-20T06:44:23.387Z,9.83
2022-10-20T06:46:52.330Z,10.07
2022-10-20T06:49:19.305Z,10.00
2022-10-20T06:51:46.136Z,9.87
2022-10-20T06:54:13.033Z,9.90
2022-10-20T06:56:40.818Z,9.87
2022-10-20T06:59:08.062Z,10.57
2022-10-20T07:01:37.603Z,9.67
2022-10-20T07:04:14.623Z,9.07
2022-10-20T07:06:44.566Z,9.13
2022-10-20T07:09:18.599Z,8.60
2022-10-20T07:11:46.163Z,8.40
2022-10-20T07:14:14.018Z,8.33
2022-10-20T07:16:41.428Z,7.57
2022-10-20T07:19:08.202Z,7.30
2022-10-20T07:21:38.312Z,6.83
2022-10-20T07:24:07.495Z,7.03
2022-10-20T07:26:38.752Z,7.07
2022-10-20T07:29:05.763Z,6.83
2022-10-20T07:31:39.754Z,6.73
2022-10-20T07:34:27.059Z,6.33
2022-10-20T07:36:55.899Z,6.67
2022-10-20T07:39:23.409Z,6.07
2022-10-20T07:41:50.708Z,6.50
2022-10-20T07:44:17.595Z,6.37
2022-10-20T07:46:44.828Z,6.30
2022-10-20T07:49:42.348Z,6.43
2022-10-20T07:51:58.697Z,6.20
2022-10-20T07:54:25.571Z,6.90
2022-10-20T07:56:52.482Z,6.43
2022-10-20T07:59:19.474Z,6.63
2022-10-20T08:01:47.034Z,6.87
2022-10-20T08:04:14.082Z,6.17
2022-10-20T08:06:40.940Z,6.03
2022-10-20T08:09:08.400Z,6.50
2022-10-20T08:11:35.762Z,6.87
2022-10-20T08:14:02.659Z,6.47
2022-10-20T08:16:33.975Z,7.10
2022-10-20T08:19:22.191Z,6.40
2022-10-20T08:21:49.024Z,6.20
2022-10-20T08:24:15.817Z,5.67
2022-10-20T08:26:42.615Z,6.23
2022-10-20T08:29:09.485Z,6.13
2022-10-20T08:31:36.298Z,5.90
2022-10-20T08:34:03.102Z,5.80
2022-10-20T08:36:29.905Z,6.47
2022-10-20T08:39:03.450Z,6.67
2022-10-20T08:41:55.442Z,6.63
2022-10-20T08:44:32.071Z,6.20
2022-10-20T08:47:02.658Z,6.37
2022-10-20T08:49:33.321Z,6.20
2022-10-20T08:52:01.189Z,6.00
2022-10-20T08:54:28.000Z,6.63
2022-10-20T08:56:54.808Z,6.67
2022-10-20T08:59:32.880Z,6.90
2022-10-20T09:02:00.484Z,6.50
2022-10-20T09:05:01.133Z,6.77
2022-10-20T09:07:40.071Z,6.60
2022-10-20T09:10:15.686Z,5.90
2022-10-20T09:12:46.866Z,6.73
2022-10-20T09:15:17.067Z,6.73
2022-10-20T09:17:55.344Z,6.60
2022-10-20T09:20:35.028Z,5.80
2022-10-20T09:23:16.543Z,6.60
2022-10-20T09:25:51.738Z,7.00
2022-10-20T09:28:27.176Z,6.53
2022-10-20T09:30:55.957Z,6.50
2022-10-20T09:33:31.664Z,6.63
2022-10-20T09:36:12.289Z,6.60
2022-10-20T09:38:48.796Z,7.10
2022-10-20T09:41:23.131Z,6.63
2022-10-20T09:44:08.922Z,6.57
2022-10-20T09:46:55.103Z,6.67
2022-10-20T09:49:36.827Z,6.83
2022-10-20T09:52:17.834Z,6.53
2022-10-20T09:54:50.096Z,6.27
2022-10-20T09:57:20.036Z,6.87
2022-10-20T09:59:49.525Z,6.97
2022-10-20T10:02:16.204Z,7.07
2022-10-20T10:04:46.796Z,6.37
2022-10-20T10:07:22.361Z,6.70
2022-10-20T10:10:25.762Z,5.50
2022-10-20T10:12:56.186Z,6.57
2022-10-20T10:15:22.877Z,6.33
2022-10-20T10:17:50.530Z,6.70
2022-10-20T10:20:17.180Z,7.07
2022-10-20T10:22:44.072Z,6.23
2022-10-20T10:25:26.441Z,6.57
2022-10-20T10:28:30.778Z,6.33
2022-10-20T10:31:16.401Z,6.07
2022-10-20T10:33:43.434Z,6.80
2022-10-20T10:36:36.022Z,6.30
2022-10-20T10:39:09.379Z,6.53
2022-10-20T10:42:02.583Z,6.30
2022-10-20T10:44:54.671Z,5.90
2022-10-20T10:47:37.918Z,7.03
2022-10-20T10:50:38.294Z,7.13
2022-10-20T10:53:26.000Z,6.70
2022-10-20T10:56:28.852Z,5.60
2022-10-20T10:59:10.459Z,6.73
2022-10-20T11:02:22.425Z,6.60
2022-10-20T11:05:27.085Z,5.63
2022-10-20T11:07:56.805Z,6.47
2022-10-20T11:10:56.294Z,6.37
2022-10-20T11:13:29.399Z,6.77
2022-10-20T11:16:07.024Z,6.60
2022-10-20T11:19:08.108Z,6.33
2022-10-20T11:21:50.008Z,5.67
2022-10-20T11:25:00.344Z,6.20
2022-10-20T11:27:31.310Z,5.73
2022-10-20T11:30:07.963Z,6.67
2022-10-20T11:32:42.729Z,5.93
2022-10-20T11:35:41.943Z,6.40
2022-10-20T11:38:31.471Z,6.00
2022-10-20T11:41:06.392Z,6.17
2022-10-20T11:43:42.637Z,6.20
2022-10-20T11:47:08.056Z,6.33
2022-10-20T11:49:39.844Z,5.50
2022-10-20T11:52:55.479Z,6.80
2022-10-20T11:55:58.272Z,5.60
2022-10-20T11:59:07.103Z,6.20
2022-10-20T12:02:36.469Z,6.13
2022-10-20T12:05:46.982Z,6.00
2022-10-20T12:08:44.850Z,5.97
2022-10-20T12:11:56.496Z,6.30
2022-10-20T12:14:32.744Z,5.80
2022-10-20T12:17:24.826Z,5.57
2022-10-20T12:19:52.553Z,5.83
2022-10-20T12:22:28.213Z,6.20
2022-10-20T12:24:54.894Z,5.93
2022-10-20T12:27:29.995Z,5.97
2022-10-20T12:29:58.170Z,6.27
2022-10-20T12:32:36.290Z,6.60
2022-10-20T12:35:23.139Z,5.63
2022-10-20T12:38:03.922Z,6.47
2022-10-20T12:40:40.986Z,5.83
2022-10-20T12:43:35.696Z,6.13
2022-10-20T12:46:15.723Z,5.40
2022-10-20T12:48:46.156Z,5.80
2022-10-20T12:51:36.578Z,5.40
2022-10-20T12:54:16.891Z,5.43
2022-10-20T12:56:43.986Z,5.20
2022-10-20T12:59:35.636Z,5.63
2022-10-20T13:02:11.548Z,5.73
2022-10-20T13:05:01.359Z,5.40
2022-10-20T13:07:46.378Z,5.00
2022-10-20T13:10:30.918Z,4.50
2022-10-20T13:13:03.693Z,4.77
2022-10-20T13:15:36.179Z,5.33
2022-10-20T13:18:20.875Z,5.10
2022-10-20T13:21:21.145Z,5.27
2022-10-20T13:24:22.929Z,5.30
2022-10-20T13:26:57.571Z,4.87
2022-10-20T13:29:33.479Z,5.27
2022-10-20T13:36:05.748Z,5.00
2022-10-20T13:38:41.146Z,4.80
2022-10-20T13:41:48.111Z,4.70
2022-10-20T13:44:32.307Z,4.87
2022-10-20T13:47:39.014Z,5.10
2022-10-20T13:50:13.105Z,5.23
2022-10-20T13:52:45.441Z,5.30
2022-10-20T13:55:57.055Z,5.20
2022-10-20T13:58:26.938Z,4.80
2022-10-20T14:01:03.226Z,5.03
2022-10-20T14:03:36.307Z,5.80
2022-10-20T14:06:03.195Z,5.13
2022-10-20T14:08:30.024Z,5.10
2022-10-20T14:11:06.709Z,4.87
2022-10-20T14:13:35.908Z,4.83
2022-10-20T14:16:06.099Z,6.07
2022-10-20T14:18:39.586Z,5.63
2022-10-20T14:21:17.110Z,5.20
2022-10-20T14:23:46.137Z,5.90
2022-10-20T14:26:20.888Z,5.37
2022-10-20T14:28:50.060Z,5.40
2022-10-20T14:31:21.606Z,5.47
2022-10-20T14:33:50.437Z,5.23
2022-10-20T14:39:01.158Z,5.43
2022-10-20T14:41:34.343Z,5.40
2022-10-20T14:44:12.251Z,5.83
2022-10-20T14:46:47.868Z,5.40
2022-10-20T14:49:38.156Z,5.37
2022-10-20T14:52:21.982Z,5.33
2022-10-20T14:54:51.032Z,6.10
2022-10-20T14:57:17.713Z,5.00
2022-10-20T15:00:03.046Z,5.33
2022-10-20T15:02:42.742Z,5.43
2022-10-20T15:05:26.059Z,4.97
2022-10-20T15:07:55.630Z,4.43
2022-10-20T15:10:26.102Z,4.70
2022-10-20T15:12:55.639Z,4.70
2022-10-20T15:15:29.247Z,5.17
2022-10-20T15:18:09.391Z,5.43
2022-10-20T15:20:41.709Z,5.33
2022-10-20T15:23:14.301Z,6.27
2022-10-20T15:26:05.557Z,6.10
2022-10-20T15:28:47.422Z,6.27
2022-10-20T15:31:21.063Z,6.67
2022-10-20T15:33:48.337Z,6.50
2022-10-20T15:36:41.859Z,6.13
2022-10-20T15:39:09.413Z,5.83
2022-10-20T15:41:37.076Z,6.13
2022-10-20T15:44:21.413Z,5.37
2022-10-20T15:46:50.753Z,7.43
2022-10-20T15:49:17.571Z,6.83
2022-10-20T15:51:46.534Z,6.53
2022-10-20T15:54:16.492Z,6.00
2022-10-20T15:56:43.962Z,6.10
2022-10-20T15:59:10.771Z,7.00
2022-10-20T16:01:38.267Z,6.93
2022-10-20T16:04:26.046Z,6.67
2022-10-20T16:06:58.987Z,6.13
2022-10-20T16:09:27.340Z,5.77
2022-10-20T16:11:54.396Z,5.80
2022-10-20T16:14:21.220Z,6.50
2022-10-20T16:16:48.149Z,6.53
2022-10-20T16:19:15.002Z,6.47
2022-10-20T16:21:42.200Z,7.07
2022-10-20T16:24:09.166Z,6.23
2022-10-20T16:26:35.928Z,6.50
2022-10-20T16:29:02.715Z,6.83
2022-10-20T16:31:29.560Z,6.60
2022-10-20T16:34:00.219Z,7.50
2022-10-20T16:36:27.473Z,6.67
2022-10-20T16:38:57.444Z,8.43
2022-10-20T16:41:24.561Z,7.37
2022-10-20T16:43:51.481Z,7.60
2022-10-20T16:46:18.676Z,7.50
2022-10-20T16:48:47.903Z,7.10
2022-10-20T16:51:16.556Z,7.20
2022-10-20T16:53:43.826Z,7.97
2022-10-20T16:56:15.221Z,7.20
2022-10-20T16:58:45.151Z,7.53
2022-10-20T17:01:14.121Z,7.00
2022-10-20T17:03:47.576Z,7.50
2022-10-20T17:06:18.241Z,7.13
2022-10-20T17:08:45.192Z,6.97
2022-10-20T17:11:28.345Z,7.33
2022-10-20T17:13:57.405Z,7.00
2022-10-20T17:16:33.058Z,7.30
2022-10-20T17:19:01.828Z,7.33
2022-10-20T17:21:30.835Z,7.33
2022-10-20T17:23:57.885Z,7.57
2022-10-20T17:26:27.887Z,7.43
2022-10-20T17:28:56.451Z,7.67
2022-10-20T17:31:23.370Z,7.40
2022-10-20T17:33:51.449Z,7.30
2022-10-20T17:36:19.694Z,7.00
2022-10-20T17:38:46.572Z,7.00
2022-10-20T17:41:15.522Z,6.87
2022-10-20T17:43:42.304Z,6.90
2022-10-20T17:46:14.143Z,7.40
2022-10-20T17:48:41.345Z,6.47
2022-10-20T17:51:19.435Z,7.10
2022-10-20T17:53:50.049Z,6.63
2022-10-20T17:56:34.018Z,6.80
2022-10-20T17:59:04.719Z,6.63
2022-10-20T18:01:39.218Z,5.83
2022-10-20T18:04:13.998Z,5.97
2022-10-20T18:06:43.781Z,6.10
2022-10-20T18:09:17.025Z,6.70
2022-10-20T18:11:48.196Z,6.63
2022-10-20T18:14:16.917Z,6.43
2022-10-20T18:16:44.650Z,6.10
2022-10-20T18:19:18.170Z,6.87
2022-10-20T18:21:46.159Z,7.27
2022-10-20T18:24:15.809Z,7.70
2022-10-20T18:26:43.320Z,8.53
2022-10-20T18:29:12.293Z,8.17
2022-10-20T18:31:41.714Z,7.97
2022-10-20T18:34:15.151Z,8.27
2022-10-20T18:36:45.092Z,8.60
2022-10-20T18:39:13.801Z,8.17
2022-10-20T18:41:42.948Z,8.37
2022-10-20T18:44:18.290Z,8.17
2022-10-20T18:46:47.017Z,8.77
2022-10-20T18:49:16.335Z,8.83
2022-10-20T18:51:46.973Z,8.63
2022-10-20T18:54:14.853Z,8.40
2022-10-20T18:56:42.797Z,8.53
2022-10-20T18:59:13.828Z,8.40
2022-10-20T19:01:41.161Z,8.70
2022-10-20T19:04:10.389Z,7.70
2022-10-20T19:06:41.141Z,7.77
2022-10-20T19:09:11.746Z,8.83
2022-10-20T19:11:40.260Z,7.60
2022-10-20T19:14:11.627Z,8.67
2022-10-20T19:16:40.111Z,8.90
2022-10-20T19:19:08.196Z,8.77
2022-10-20T19:21:35.976Z,7.93
2022-10-20T19:24:16.541Z,7.90
2022-10-20T19:26:57.495Z,8.10
2022-10-20T19:29:35.404Z,8.47
2022-10-20T19:32:05.151Z,8.10
2022-10-20T19:34:37.443Z,8.50
2022-10-20T19:37:06.034Z,8.33
2022-10-20T19:39:38.274Z,7.77
2022-10-20T19:42:07.216Z,8.60
2022-10-20T19:44:35.073Z,8.90
2022-10-20T19:47:03.931Z,9.17
2022-10-20T19:49:30.814Z,9.13
2022-10-20T19:51:58.212Z,8.43
2022-10-20T19:54:25.246Z,8.53
2022-10-20T19:56:53.176Z,8.50
2022-10-20T19:59:20.254Z,8.30
2022-10-20T20:01:49.543Z,8.40
2022-10-20T20:04:16.615Z,9.07
2022-10-20T20:06:43.438Z,8.47
2022-10-20T20:09:11.441Z,9.07
2022-10-20T20:11:38.872Z,7.77
2022-10-20T20:14:17.042Z,7.70
2022-10-20T20:16:46.015Z,8.37
2022-10-20T20:19:14.864Z,8.97
2022-10-20T20:21:41.647Z,9.13
2022-10-20T20:24:11.466Z,8.30
2022-10-20T20:26:38.366Z,7.87
2022-10-20T20:29:05.492Z,8.47
2022-10-20T20:31:33.207Z,8.27
2022-10-20T20:34:00.400Z,8.77
2022-10-20T20:36:28.646Z,8.37
2022-10-20T20:38:58.106Z,8.37
2022-10-20T20:41:28.095Z,8.30
2022-10-20T20:43:55.185Z,9.20
2022-10-20T20:46:24.129Z,8.13
2022-10-20T20:48:51.506Z,8.90
2022-10-20T20:51:18.481Z,9.23
2022-10-20T20:53:45.368Z,8.83
2022-10-20T20:56:15.674Z,9.03
2022-10-20T20:58:45.323Z,9.23
2022-10-20T21:01:19.552Z,9.93
2022-10-20T21:03:47.356Z,9.47
2022-10-20T21:06:17.241Z,9.80
2022-10-20T21:08:47.511Z,9.17
2022-10-20T21:11:19.176Z,9.43
2022-10-20T21:13:47.920Z,9.70
2022-10-20T21:16:20.138Z,9.10
2022-10-20T21:18:50.037Z,8.70
2022-10-20T21:21:22.605Z,8.70
2022-10-20T21:23:49.857Z,8.30
2022-10-20T21:26:18.696Z,7.10
2022-10-20T21:28:46.987Z,7.07
2022-10-20T21:31:17.931Z,8.23
2022-10-20T21:33:51.155Z,7.37
2022-10-20T21:36:20.241Z,7.83
2022-10-20T21:38:47.472Z,8.00
2022-10-20T21:41:19.648Z,7.90
2022-10-20T21:43:50.481Z,7.30
2022-10-20T21:46:23.932Z,8.33
2022-10-20T21:48:53.813Z,8.73
2022-10-20T21:51:30.083Z,7.80
2022-10-20T21:54:07.956Z,9.13
2022-10-20T21:56:37.188Z,8.80
2022-10-20T21:59:06.109Z,8.93
2022-10-20T22:01:33.386Z,9.57
2022-10-20T22:04:00.423Z,8.00
2022-10-20T22:06:27.974Z,9.77
2022-10-20T22:08:58.065Z,8.87
2022-10-20T22:11:38.305Z,8.67
2022-10-20T22:14:06.360Z,8.57
2022-10-20T22:16:36.795Z,8.73
2022-10-20T22:19:12.162Z,8.40
2022-10-20T22:21:42.109Z,8.83
2022-10-20T22:24:09.147Z,8.53
2022-10-20T22:26:36.863Z,8.57
2022-10-20T22:29:06.217Z,8.13
2022-10-20T22:31:33.140Z,8.67
2022-10-20T22:34:00.110Z,8.07
2022-10-20T22:36:27.589Z,9.00
2022-10-20T22:38:54.606Z,9.23
2022-10-20T22:41:21.714Z,8.30
2022-10-20T22:43:48.524Z,8.27
2022-10-20T22:46:18.680Z,7.80
2022-10-20T22:48:46.315Z,8.57
2022-10-20T22:51:14.142Z,8.23
2022-10-20T22:53:41.169Z,7.90
2022-10-20T22:56:18.172Z,8.23
2022-10-20T22:58:45.164Z,8.80
2022-10-20T23:01:20.011Z,7.80
2022-10-20T23:03:47.248Z,8.40
2022-10-20T23:06:18.905Z,8.60
2022-10-20T23:08:48.945Z,7.30
2022-10-20T23:11:16.889Z,8.03
2022-10-20T23:13:43.993Z,8.13
2022-10-20T23:16:11.767Z,8.20
2022-10-20T23:18:39.249Z,7.93
2022-10-20T23:21:07.060Z,7.93
2022-10-20T23:23:37.274Z,8.80
2022-10-20T23:26:06.329Z,9.43
2022-10-20T23:28:34.571Z,9.60
2022-10-20T23:31:09.453Z,10.07
2022-10-20T23:33:38.114Z,9.83
2022-10-20T23:36:05.640Z,10.80
2022-10-20T23:38:32.810Z,11.43
2022-10-20T23:40:59.708Z,11.10
2022-10-20T23:43:26.536Z,10.40
2022-10-20T23:45:53.394Z,10.37
2022-10-20T23:48:20.217Z,10.33
2022-10-20T23:50:47.137Z,10.60
2022-10-20T23:53:14.337Z,10.53
2022-10-20T23:55:41.946Z,11.03
2022-10-20T23:58:09.174Z,11.43
